sensor_id;sensor_type;location;lat;lon;timestamp;P1;durP1;ratioP1;P2;durP2;ratioP2
4839;SDS011;2434;48.486;7.964;2024-01-27T00:01:35;9.23;;;4.00;;
4839;SDS011;2434;48.486;7.964;2024-01-27T00:04:03;9.00;;;3.00;;
4839;SDS011;2434;48.486;7.964;2024-01-27T00:06:31;9.60;;;4.17;;
4839;SDS011;2434;48.486;7.964;2024-01-27T00:08:59;18.73;;;5.57;;
4839;SDS011;2434;48.486;7.964;2024-01-27T00:11:27;12.03;;;5.40;;
4839;SDS011;2434;48.486;7.964;2024-01-27T00:13:55;11.13;;;5.20;;
4839;SDS011;2434;48.486;7.964;2024-01-27T00:16:25;10.37;;;4.70;;
4839;SDS011;2434;48.486;7.964;2024-01-27T00:18:54;8.27;;;4.53;;
4839;SDS011;2434;48.486;7.964;2024-01-27T00:21:23;11.30;;;4.10;;
4839;SDS011;2434;48.486;7.964;2024-01-27T00:23:51;9.23;;;4.10;;
4839;SDS011;2434;48.486;7.964;2024-01-27T00:26:19;6.27;;;3.40;;
4839;SDS011;2434;48.486;7.964;2024-01-27T00:28:47;18.10;;;4.37;;
4839;SDS011;2434;48.486;7.964;2024-01-27T00:31:15;8.83;;;4.17;;
4839;SDS011;2434;48.486;7.964;2024-01-27T00:33:43;15.43;;;4.40;;
4839;SDS011;2434;48.486;7.964;2024-01-27T00:36:13;7.83;;;3.63;;
4839;SDS011;2434;48.486;7.964;2024-01-27T00:38:41;9.50;;;3.80;;
4839;SDS011;2434;48.486;7.964;2024-01-27T00:41:09;8.43;;;3.60;;
4839;SDS011;2434;48.486;7.964;2024-01-27T00:43:42;8.17;;;4.17;;
4839;SDS011;2434;48.486;7.964;2024-01-27T00:46:10;8.43;;;3.50;;
4839;SDS011;2434;48.486;7.964;2024-01-27T00:48:38;10.90;;;4.40;;
4839;SDS011;2434;48.486;7.964;2024-01-27T00:51:07;8.43;;;4.30;;
4839;SDS011;2434;48.486;7.964;2024-01-27T00:53:36;10.73;;;4.40;;
4839;SDS011;2434;48.486;7.964;2024-01-27T00:56:04;7.33;;;3.70;;
4839;SDS011;2434;48.486;7.964;2024-01-27T00:58:32;6.73;;;3.53;;
4839;SDS011;2434;48.486;7.964;2024-01-27T01:01:01;6.17;;;3.20;;
4839;SDS011;2434;48.486;7.964;2024-01-27T01:03:29;7.23;;;3.00;;
4839;SDS011;2434;48.486;7.964;2024-01-27T01:05:57;6.30;;;2.87;;
4839;SDS011;2434;48.486;7.964;2024-01-27T01:08:25;9.77;;;2.90;;
4839;SDS011;2434;48.486;7.964;2024-01-27T01:10:55;6.07;;;2.53;;
4839;SDS011;2434;48.486;7.964;2024-01-27T01:13:23;8.07;;;3.67;;
4839;SDS011;2434;48.486;7.964;2024-01-27T01:15:51;6.07;;;2.33;;
4839;SDS011;2434;48.486;7.964;2024-01-27T01:18:19;9.60;;;2.30;;
4839;SDS011;2434;48.486;7.964;2024-01-27T01:20:47;7.60;;;2.63;;
4839;SDS011;2434;48.486;7.964;2024-01-27T01:23:16;8.73;;;3.20;;
4839;SDS011;2434;48.486;7.964;2024-01-27T01:25:44;8.33;;;2.63;;
4839;SDS011;2434;48.486;7.964;2024-01-27T01:28:13;5.87;;;3.03;;
4839;SDS011;2434;48.486;7.964;2024-01-27T01:30:41;10.80;;;4.80;;
4839;SDS011;2434;48.486;7.964;2024-01-27T01:33:10;16.13;;;5.63;;
4839;SDS011;2434;48.486;7.964;2024-01-27T01:35:38;9.57;;;5.43;;
4839;SDS011;2434;48.486;7.964;2024-01-27T01:38:06;27.87;;;6.10;;
4839;SDS011;2434;48.486;7.964;2024-01-27T01:40:34;9.33;;;4.47;;
4839;SDS011;2434;48.486;7.964;2024-01-27T01:43:02;8.13;;;3.47;;
4839;SDS011;2434;48.486;7.964;2024-01-27T01:45:32;11.17;;;3.30;;
4839;SDS011;2434;48.486;7.964;2024-01-27T01:48:00;6.73;;;2.70;;
4839;SDS011;2434;48.486;7.964;2024-01-27T01:50:29;4.53;;;2.77;;
4839;SDS011;2434;48.486;7.964;2024-01-27T01:52:57;6.30;;;4.20;;
4839;SDS011;2434;48.486;7.964;2024-01-27T01:55:25;8.63;;;3.93;;
4839;SDS011;2434;48.486;7.964;2024-01-27T01:57:53;10.70;;;4.40;;
4839;SDS011;2434;48.486;7.964;2024-01-27T02:00:21;15.00;;;3.87;;
4839;SDS011;2434;48.486;7.964;2024-01-27T02:02:51;6.10;;;3.27;;
4839;SDS011;2434;48.486;7.964;2024-01-27T02:05:19;5.60;;;2.90;;
4839;SDS011;2434;48.486;7.964;2024-01-27T02:07:47;12.30;;;3.67;;
4839;SDS011;2434;48.486;7.964;2024-01-27T02:10:16;10.13;;;3.97;;
4839;SDS011;2434;48.486;7.964;2024-01-27T02:12:45;7.00;;;4.03;;
4839;SDS011;2434;48.486;7.964;2024-01-27T02:15:13;11.13;;;4.73;;
4839;SDS011;2434;48.486;7.964;2024-01-27T02:17:41;8.53;;;4.70;;
4839;SDS011;2434;48.486;7.964;2024-01-27T02:20:11;10.47;;;3.50;;
4839;SDS011;2434;48.486;7.964;2024-01-27T02:22:39;9.73;;;4.00;;
4839;SDS011;2434;48.486;7.964;2024-01-27T02:25:09;6.03;;;4.03;;
4839;SDS011;2434;48.486;7.964;2024-01-27T02:27:37;15.97;;;3.10;;
4839;SDS011;2434;48.486;7.964;2024-01-27T02:30:05;6.83;;;2.73;;
4839;SDS011;2434;48.486;7.964;2024-01-27T02:32:34;8.60;;;3.00;;
4839;SDS011;2434;48.486;7.964;2024-01-27T02:35:02;6.57;;;2.77;;
4839;SDS011;2434;48.486;7.964;2024-01-27T02:37:31;6.33;;;3.10;;
4839;SDS011;2434;48.486;7.964;2024-01-27T02:39:59;6.97;;;2.23;;
4839;SDS011;2434;48.486;7.964;2024-01-27T02:42:28;4.73;;;1.90;;
4839;SDS011;2434;48.486;7.964;2024-01-27T02:44:56;15.03;;;2.00;;
4839;SDS011;2434;48.486;7.964;2024-01-27T02:47:24;6.60;;;1.90;;
4839;SDS011;2434;48.486;7.964;2024-01-27T02:49:52;4.17;;;2.03;;
4839;SDS011;2434;48.486;7.964;2024-01-27T02:52:20;8.20;;;2.17;;
4839;SDS011;2434;48.486;7.964;2024-01-27T02:54:48;6.97;;;2.50;;
4839;SDS011;2434;48.486;7.964;2024-01-27T02:57:16;5.03;;;1.80;;
4839;SDS011;2434;48.486;7.964;2024-01-27T02:59:47;5.30;;;2.50;;
4839;SDS011;2434;48.486;7.964;2024-01-27T03:02:16;8.07;;;2.50;;
4839;SDS011;2434;48.486;7.964;2024-01-27T03:04:44;6.37;;;2.63;;
4839;SDS011;2434;48.486;7.964;2024-01-27T03:07:12;9.13;;;3.17;;
4839;SDS011;2434;48.486;7.964;2024-01-27T03:09:40;7.23;;;3.30;;
4839;SDS011;2434;48.486;7.964;2024-01-27T03:12:08;5.80;;;2.50;;
4839;SDS011;2434;48.486;7.964;2024-01-27T03:14:36;8.83;;;3.20;;
4839;SDS011;2434;48.486;7.964;2024-01-27T03:17:05;11.87;;;4.10;;
4839;SDS011;2434;48.486;7.964;2024-01-27T03:19:33;6.30;;;3.17;;
4839;SDS011;2434;48.486;7.964;2024-01-27T03:22:01;9.17;;;3.00;;
4839;SDS011;2434;48.486;7.964;2024-01-27T03:24:29;6.23;;;2.60;;
4839;SDS011;2434;48.486;7.964;2024-01-27T03:26:58;6.50;;;3.53;;
4839;SDS011;2434;48.486;7.964;2024-01-27T03:29:26;12.30;;;3.57;;
4839;SDS011;2434;48.486;7.964;2024-01-27T03:31:54;9.13;;;4.10;;
4839;SDS011;2434;48.486;7.964;2024-01-27T03:34:23;8.50;;;4.97;;
4839;SDS011;2434;48.486;7.964;2024-01-27T03:36:54;7.47;;;4.03;;
4839;SDS011;2434;48.486;7.964;2024-01-27T03:39:22;8.77;;;3.63;;
4839;SDS011;2434;48.486;7.964;2024-01-27T03:41:50;8.73;;;3.50;;
4839;SDS011;2434;48.486;7.964;2024-01-27T03:44:18;9.70;;;2.97;;
4839;SDS011;2434;48.486;7.964;2024-01-27T03:46:46;9.10;;;3.17;;
4839;SDS011;2434;48.486;7.964;2024-01-27T03:49:15;9.30;;;2.77;;
4839;SDS011;2434;48.486;7.964;2024-01-27T03:51:45;5.60;;;2.80;;
4839;SDS011;2434;48.486;7.964;2024-01-27T03:54:13;6.30;;;3.23;;
4839;SDS011;2434;48.486;7.964;2024-01-27T03:56:41;10.63;;;3.73;;
4839;SDS011;2434;48.486;7.964;2024-01-27T03:59:09;5.60;;;2.90;;
4839;SDS011;2434;48.486;7.964;2024-01-27T04:01:37;7.57;;;3.50;;
4839;SDS011;2434;48.486;7.964;2024-01-27T04:04:05;4.17;;;2.50;;
4839;SDS011;2434;48.486;7.964;2024-01-27T04:06:37;8.43;;;2.93;;
4839;SDS011;2434;48.486;7.964;2024-01-27T04:09:07;5.07;;;2.70;;
4839;SDS011;2434;48.486;7.964;2024-01-27T04:11:36;5.73;;;3.20;;
4839;SDS011;2434;48.486;7.964;2024-01-27T04:14:04;5.10;;;3.10;;
4839;SDS011;2434;48.486;7.964;2024-01-27T04:16:33;9.50;;;3.20;;
4839;SDS011;2434;48.486;7.964;2024-01-27T04:19:01;6.57;;;3.13;;
4839;SDS011;2434;48.486;7.964;2024-01-27T04:21:29;8.50;;;2.80;;
4839;SDS011;2434;48.486;7.964;2024-01-27T04:23:58;4.53;;;2.33;;
4839;SDS011;2434;48.486;7.964;2024-01-27T04:26:27;7.50;;;2.37;;
4839;SDS011;2434;48.486;7.964;2024-01-27T04:28:55;5.43;;;2.63;;
4839;SDS011;2434;48.486;7.964;2024-01-27T04:31:23;9.80;;;2.90;;
4839;SDS011;2434;48.486;7.964;2024-01-27T04:33:51;4.70;;;2.90;;
4839;SDS011;2434;48.486;7.964;2024-01-27T04:36:24;3.07;;;1.73;;
4839;SDS011;2434;48.486;7.964;2024-01-27T04:38:54;3.00;;;1.90;;
4839;SDS011;2434;48.486;7.964;2024-01-27T04:41:22;4.50;;;2.40;;
4839;SDS011;2434;48.486;7.964;2024-01-27T04:43:51;4.67;;;2.43;;
4839;SDS011;2434;48.486;7.964;2024-01-27T04:46:21;15.30;;;3.07;;
4839;SDS011;2434;48.486;7.964;2024-01-27T04:48:50;5.60;;;2.67;;
4839;SDS011;2434;48.486;7.964;2024-01-27T04:51:18;7.80;;;2.73;;
4839;SDS011;2434;48.486;7.964;2024-01-27T04:53:46;7.60;;;2.73;;
4839;SDS011;2434;48.486;7.964;2024-01-27T04:56:14;6.53;;;2.50;;
4839;SDS011;2434;48.486;7.964;2024-01-27T04:58:42;9.67;;;3.13;;
4839;SDS011;2434;48.486;7.964;2024-01-27T05:01:11;4.00;;;2.27;;
4839;SDS011;2434;48.486;7.964;2024-01-27T05:03:39;6.10;;;2.60;;
4839;SDS011;2434;48.486;7.964;2024-01-27T05:06:08;10.40;;;3.30;;
4839;SDS011;2434;48.486;7.964;2024-01-27T05:08:37;4.87;;;2.60;;
4839;SDS011;2434;48.486;7.964;2024-01-27T05:11:06;6.50;;;2.80;;
4839;SDS011;2434;48.486;7.964;2024-01-27T05:13:34;6.90;;;2.60;;
4839;SDS011;2434;48.486;7.964;2024-01-27T05:16:04;10.17;;;3.57;;
4839;SDS011;2434;48.486;7.964;2024-01-27T05:18:33;5.27;;;2.60;;
4839;SDS011;2434;48.486;7.964;2024-01-27T05:21:02;5.00;;;2.47;;
4839;SDS011;2434;48.486;7.964;2024-01-27T05:23:30;7.73;;;2.47;;
4839;SDS011;2434;48.486;7.964;2024-01-27T05:25:58;7.80;;;3.10;;
4839;SDS011;2434;48.486;7.964;2024-01-27T05:28:26;6.87;;;2.80;;
4839;SDS011;2434;48.486;7.964;2024-01-27T05:30:54;4.80;;;2.43;;
4839;SDS011;2434;48.486;7.964;2024-01-27T05:33:22;6.60;;;2.47;;
4839;SDS011;2434;48.486;7.964;2024-01-27T05:35:52;7.73;;;2.80;;
4839;SDS011;2434;48.486;7.964;2024-01-27T05:38:20;7.93;;;2.63;;
4839;SDS011;2434;48.486;7.964;2024-01-27T05:40:48;4.87;;;2.17;;
4839;SDS011;2434;48.486;7.964;2024-01-27T05:43:17;11.07;;;2.50;;
4839;SDS011;2434;48.486;7.964;2024-01-27T05:45:45;6.17;;;2.80;;
4839;SDS011;2434;48.486;7.964;2024-01-27T05:48:13;3.70;;;2.20;;
4839;SDS011;2434;48.486;7.964;2024-01-27T05:50:43;7.83;;;2.77;;
4839;SDS011;2434;48.486;7.964;2024-01-27T05:53:23;7.47;;;2.87;;
4839;SDS011;2434;48.486;7.964;2024-01-27T05:55:51;6.70;;;2.80;;
4839;SDS011;2434;48.486;7.964;2024-01-27T05:58:19;6.67;;;2.33;;
4839;SDS011;2434;48.486;7.964;2024-01-27T06:00:47;6.97;;;2.70;;
4839;SDS011;2434;48.486;7.964;2024-01-27T06:03:16;12.47;;;5.20;;
4839;SDS011;2434;48.486;7.964;2024-01-27T06:05:44;14.83;;;5.30;;
4839;SDS011;2434;48.486;7.964;2024-01-27T06:08:12;18.57;;;6.63;;
4839;SDS011;2434;48.486;7.964;2024-01-27T06:10:42;18.47;;;7.17;;
4839;SDS011;2434;48.486;7.964;2024-01-27T06:13:10;16.50;;;5.37;;
4839;SDS011;2434;48.486;7.964;2024-01-27T06:15:38;9.70;;;3.40;;
4839;SDS011;2434;48.486;7.964;2024-01-27T06:18:06;4.30;;;2.00;;
4839;SDS011;2434;48.486;7.964;2024-01-27T06:20:34;8.13;;;3.03;;
4839;SDS011;2434;48.486;7.964;2024-01-27T06:23:02;9.83;;;2.67;;
4839;SDS011;2434;48.486;7.964;2024-01-27T06:25:31;9.33;;;2.67;;
4839;SDS011;2434;48.486;7.964;2024-01-27T06:28:01;10.17;;;3.10;;
4839;SDS011;2434;48.486;7.964;2024-01-27T06:30:29;7.63;;;2.30;;
4839;SDS011;2434;48.486;7.964;2024-01-27T06:32:57;6.47;;;2.33;;
4839;SDS011;2434;48.486;7.964;2024-01-27T06:35:25;14.77;;;3.20;;
4839;SDS011;2434;48.486;7.964;2024-01-27T06:37:53;5.87;;;3.43;;
4839;SDS011;2434;48.486;7.964;2024-01-27T06:40:21;13.27;;;4.83;;
4839;SDS011;2434;48.486;7.964;2024-01-27T06:42:49;6.73;;;3.50;;
4839;SDS011;2434;48.486;7.964;2024-01-27T06:45:19;14.23;;;4.10;;
4839;SDS011;2434;48.486;7.964;2024-01-27T06:47:47;8.93;;;3.53;;
4839;SDS011;2434;48.486;7.964;2024-01-27T06:50:15;8.30;;;3.97;;
4839;SDS011;2434;48.486;7.964;2024-01-27T06:52:43;7.20;;;3.10;;
4839;SDS011;2434;48.486;7.964;2024-01-27T06:55:12;8.50;;;3.17;;
4839;SDS011;2434;48.486;7.964;2024-01-27T06:57:40;8.47;;;3.23;;
4839;SDS011;2434;48.486;7.964;2024-01-27T07:00:08;11.23;;;4.03;;
4839;SDS011;2434;48.486;7.964;2024-01-27T07:02:42;14.50;;;6.47;;
4839;SDS011;2434;48.486;7.964;2024-01-27T07:05:10;24.20;;;10.50;;
4839;SDS011;2434;48.486;7.964;2024-01-27T07:07:41;29.03;;;11.60;;
4839;SDS011;2434;48.486;7.964;2024-01-27T07:10:09;21.67;;;10.10;;
4839;SDS011;2434;48.486;7.964;2024-01-27T07:12:37;18.27;;;9.00;;
4839;SDS011;2434;48.486;7.964;2024-01-27T07:15:06;19.57;;;7.43;;
4839;SDS011;2434;48.486;7.964;2024-01-27T07:17:34;13.53;;;6.40;;
4839;SDS011;2434;48.486;7.964;2024-01-27T07:20:04;10.10;;;4.60;;
4839;SDS011;2434;48.486;7.964;2024-01-27T07:22:33;8.37;;;3.53;;
4839;SDS011;2434;48.486;7.964;2024-01-27T07:25:01;9.57;;;3.50;;
4839;SDS011;2434;48.486;7.964;2024-01-27T07:27:29;8.10;;;3.33;;
4839;SDS011;2434;48.486;7.964;2024-01-27T07:29:57;11.50;;;4.03;;
4839;SDS011;2434;48.486;7.964;2024-01-27T07:32:26;11.90;;;4.63;;
4839;SDS011;2434;48.486;7.964;2024-01-27T07:34:54;10.43;;;5.20;;
4839;SDS011;2434;48.486;7.964;2024-01-27T07:37:23;12.07;;;7.70;;
4839;SDS011;2434;48.486;7.964;2024-01-27T07:39:51;9.70;;;5.20;;
4839;SDS011;2434;48.486;7.964;2024-01-27T07:42:19;8.73;;;5.13;;
4839;SDS011;2434;48.486;7.964;2024-01-27T07:44:47;16.30;;;7.00;;
4839;SDS011;2434;48.486;7.964;2024-01-27T07:47:15;19.53;;;8.93;;
4839;SDS011;2434;48.486;7.964;2024-01-27T07:49:43;17.43;;;9.47;;
4839;SDS011;2434;48.486;7.964;2024-01-27T07:52:12;18.40;;;11.10;;
4839;SDS011;2434;48.486;7.964;2024-01-27T07:54:41;24.63;;;13.27;;
4839;SDS011;2434;48.486;7.964;2024-01-27T07:57:09;18.17;;;10.53;;
4839;SDS011;2434;48.486;7.964;2024-01-27T07:59:38;15.70;;;10.97;;
4839;SDS011;2434;48.486;7.964;2024-01-27T08:02:06;22.40;;;11.23;;
4839;SDS011;2434;48.486;7.964;2024-01-27T08:04:34;21.40;;;13.10;;
4839;SDS011;2434;48.486;7.964;2024-01-27T08:07:02;22.00;;;12.83;;
4839;SDS011;2434;48.486;7.964;2024-01-27T08:09:36;18.77;;;13.50;;
4839;SDS011;2434;48.486;7.964;2024-01-27T08:12:07;18.67;;;12.50;;
4839;SDS011;2434;48.486;7.964;2024-01-27T08:14:35;24.03;;;12.00;;
4839;SDS011;2434;48.486;7.964;2024-01-27T08:17:04;24.37;;;12.10;;
4839;SDS011;2434;48.486;7.964;2024-01-27T08:19:32;15.70;;;10.07;;
4839;SDS011;2434;48.486;7.964;2024-01-27T08:22:01;23.80;;;12.70;;
4839;SDS011;2434;48.486;7.964;2024-01-27T08:24:29;18.10;;;10.43;;
4839;SDS011;2434;48.486;7.964;2024-01-27T08:26:57;23.20;;;10.93;;
4839;SDS011;2434;48.486;7.964;2024-01-27T08:29:28;23.17;;;11.77;;
4839;SDS011;2434;48.486;7.964;2024-01-27T08:31:56;22.60;;;12.93;;
4839;SDS011;2434;48.486;7.964;2024-01-27T08:34:24;14.77;;;8.10;;
4839;SDS011;2434;48.486;7.964;2024-01-27T08:36:52;14.07;;;6.07;;
4839;SDS011;2434;48.486;7.964;2024-01-27T08:39:24;7.73;;;4.53;;
4839;SDS011;2434;48.486;7.964;2024-01-27T08:41:52;8.03;;;4.43;;
4839;SDS011;2434;48.486;7.964;2024-01-27T08:44:20;11.23;;;3.93;;
4839;SDS011;2434;48.486;7.964;2024-01-27T08:46:51;9.80;;;4.77;;
4839;SDS011;2434;48.486;7.964;2024-01-27T08:49:19;12.87;;;5.40;;
4839;SDS011;2434;48.486;7.964;2024-01-27T08:51:47;9.90;;;4.50;;
4839;SDS011;2434;48.486;7.964;2024-01-27T08:54:15;15.23;;;5.50;;
4839;SDS011;2434;48.486;7.964;2024-01-27T08:56:43;10.60;;;4.43;;
4839;SDS011;2434;48.486;7.964;2024-01-27T08:59:11;17.10;;;5.83;;
4839;SDS011;2434;48.486;7.964;2024-01-27T09:01:39;9.40;;;5.57;;
4839;SDS011;2434;48.486;7.964;2024-01-27T09:04:08;9.60;;;5.00;;
4839;SDS011;2434;48.486;7.964;2024-01-27T09:06:37;8.73;;;5.60;;
4839;SDS011;2434;48.486;7.964;2024-01-27T09:09:05;14.20;;;6.20;;
4839;SDS011;2434;48.486;7.964;2024-01-27T09:11:34;12.30;;;6.33;;
4839;SDS011;2434;48.486;7.964;2024-01-27T09:14:02;9.57;;;5.87;;
4839;SDS011;2434;48.486;7.964;2024-01-27T09:16:31;14.60;;;7.43;;
4839;SDS011;2434;48.486;7.964;2024-01-27T09:18:59;15.93;;;6.63;;
4839;SDS011;2434;48.486;7.964;2024-01-27T09:21:29;10.37;;;6.13;;
4839;SDS011;2434;48.486;7.964;2024-01-27T09:23:59;12.40;;;6.67;;
4839;SDS011;2434;48.486;7.964;2024-01-27T09:26:29;18.97;;;7.97;;
4839;SDS011;2434;48.486;7.964;2024-01-27T09:28:57;14.83;;;6.83;;
4839;SDS011;2434;48.486;7.964;2024-01-27T09:31:25;11.93;;;5.90;;
4839;SDS011;2434;48.486;7.964;2024-01-27T09:33:54;13.67;;;6.60;;
4839;SDS011;2434;48.486;7.964;2024-01-27T09:36:23;10.03;;;7.30;;
4839;SDS011;2434;48.486;7.964;2024-01-27T09:38:52;11.77;;;6.70;;
4839;SDS011;2434;48.486;7.964;2024-01-27T09:41:21;11.67;;;6.07;;
4839;SDS011;2434;48.486;7.964;2024-01-27T09:43:49;15.00;;;6.77;;
4839;SDS011;2434;48.486;7.964;2024-01-27T09:46:17;12.97;;;6.20;;
4839;SDS011;2434;48.486;7.964;2024-01-27T09:48:46;12.57;;;6.83;;
4839;SDS011;2434;48.486;7.964;2024-01-27T09:51:14;15.60;;;6.90;;
4839;SDS011;2434;48.486;7.964;2024-01-27T09:53:42;13.90;;;7.10;;
4839;SDS011;2434;48.486;7.964;2024-01-27T09:56:12;15.13;;;6.20;;
4839;SDS011;2434;48.486;7.964;2024-01-27T09:58:45;11.70;;;5.93;;
4839;SDS011;2434;48.486;7.964;2024-01-27T10:01:13;12.30;;;6.00;;
4839;SDS011;2434;48.486;7.964;2024-01-27T10:03:45;13.00;;;6.60;;
4839;SDS011;2434;48.486;7.964;2024-01-27T10:06:14;13.73;;;6.13;;
4839;SDS011;2434;48.486;7.964;2024-01-27T10:08:43;13.80;;;6.53;;
4839;SDS011;2434;48.486;7.964;2024-01-27T10:11:21;16.00;;;6.70;;
4839;SDS011;2434;48.486;7.964;2024-01-27T10:13:53;13.33;;;6.40;;
4839;SDS011;2434;48.486;7.964;2024-01-27T10:16:25;13.27;;;6.07;;
4839;SDS011;2434;48.486;7.964;2024-01-27T10:19:00;17.50;;;7.40;;
4839;SDS011;2434;48.486;7.964;2024-01-27T10:21:30;20.30;;;6.80;;
4839;SDS011;2434;48.486;7.964;2024-01-27T10:23:59;10.23;;;6.07;;
4839;SDS011;2434;48.486;7.964;2024-01-27T10:26:31;14.43;;;6.60;;
4839;SDS011;2434;48.486;7.964;2024-01-27T10:29:00;11.00;;;6.13;;
4839;SDS011;2434;48.486;7.964;2024-01-27T10:31:28;16.77;;;6.00;;
4839;SDS011;2434;48.486;7.964;2024-01-27T10:33:57;15.90;;;6.80;;
4839;SDS011;2434;48.486;7.964;2024-01-27T10:36:25;16.00;;;7.07;;
4839;SDS011;2434;48.486;7.964;2024-01-27T10:38:53;20.90;;;7.27;;
4839;SDS011;2434;48.486;7.964;2024-01-27T10:41:22;14.70;;;7.70;;
4839;SDS011;2434;48.486;7.964;2024-01-27T10:43:55;18.20;;;7.83;;
4839;SDS011;2434;48.486;7.964;2024-01-27T10:46:25;19.50;;;8.60;;
4839;SDS011;2434;48.486;7.964;2024-01-27T10:48:54;17.87;;;7.17;;
4839;SDS011;2434;48.486;7.964;2024-01-27T10:51:25;17.30;;;8.10;;
4839;SDS011;2434;48.486;7.964;2024-01-27T10:54:00;21.63;;;9.27;;
4839;SDS011;2434;48.486;7.964;2024-01-27T10:56:30;22.13;;;9.10;;
4839;SDS011;2434;48.486;7.964;2024-01-27T10:59:00;18.10;;;6.60;;
4839;SDS011;2434;48.486;7.964;2024-01-27T11:01:32;14.90;;;8.30;;
4839;SDS011;2434;48.486;7.964;2024-01-27T11:04:01;14.63;;;6.70;;
4839;SDS011;2434;48.486;7.964;2024-01-27T11:06:32;17.40;;;7.40;;
4839;SDS011;2434;48.486;7.964;2024-01-27T11:09:02;14.20;;;6.60;;
4839;SDS011;2434;48.486;7.964;2024-01-27T11:11:31;16.83;;;6.70;;
4839;SDS011;2434;48.486;7.964;2024-01-27T11:14:01;13.40;;;6.83;;
4839;SDS011;2434;48.486;7.964;2024-01-27T11:16:29;13.50;;;7.40;;
4839;SDS011;2434;48.486;7.964;2024-01-27T11:18:57;13.60;;;6.00;;
4839;SDS011;2434;48.486;7.964;2024-01-27T11:21:25;10.93;;;6.43;;
4839;SDS011;2434;48.486;7.964;2024-01-27T11:23:53;11.53;;;6.67;;
4839;SDS011;2434;48.486;7.964;2024-01-27T11:26:22;9.00;;;5.80;;
4839;SDS011;2434;48.486;7.964;2024-01-27T11:28:52;10.67;;;6.73;;
4839;SDS011;2434;48.486;7.964;2024-01-27T11:31:21;14.43;;;6.80;;
4839;SDS011;2434;48.486;7.964;2024-01-27T11:33:50;13.07;;;6.93;;
4839;SDS011;2434;48.486;7.964;2024-01-27T11:36:21;15.60;;;7.30;;
4839;SDS011;2434;48.486;7.964;2024-01-27T11:38:51;16.13;;;7.20;;
4839;SDS011;2434;48.486;7.964;2024-01-27T11:41:24;14.40;;;7.00;;
4839;SDS011;2434;48.486;7.964;2024-01-27T11:43:52;21.10;;;5.80;;
4839;SDS011;2434;48.486;7.964;2024-01-27T11:46:22;11.70;;;6.47;;
4839;SDS011;2434;48.486;7.964;2024-01-27T11:48:50;10.80;;;5.10;;
4839;SDS011;2434;48.486;7.964;2024-01-27T11:51:18;10.40;;;4.63;;
4839;SDS011;2434;48.486;7.964;2024-01-27T11:53:47;17.23;;;4.97;;
4839;SDS011;2434;48.486;7.964;2024-01-27T11:56:15;10.83;;;5.20;;
4839;SDS011;2434;48.486;7.964;2024-01-27T11:58:47;10.30;;;5.33;;
4839;SDS011;2434;48.486;7.964;2024-01-27T12:01:16;13.63;;;5.10;;
4839;SDS011;2434;48.486;7.964;2024-01-27T12:03:46;14.90;;;5.57;;
4839;SDS011;2434;48.486;7.964;2024-01-27T12:06:15;11.20;;;5.50;;
4839;SDS011;2434;48.486;7.964;2024-01-27T12:08:43;12.77;;;4.77;;
4839;SDS011;2434;48.486;7.964;2024-01-27T12:11:15;8.70;;;5.03;;
4839;SDS011;2434;48.486;7.964;2024-01-27T12:13:50;8.00;;;4.77;;
4839;SDS011;2434;48.486;7.964;2024-01-27T12:16:19;11.27;;;5.60;;
4839;SDS011;2434;48.486;7.964;2024-01-27T12:18:52;10.30;;;4.67;;
4839;SDS011;2434;48.486;7.964;2024-01-27T12:21:22;14.30;;;5.10;;
4839;SDS011;2434;48.486;7.964;2024-01-27T12:23:51;13.63;;;5.40;;
4839;SDS011;2434;48.486;7.964;2024-01-27T12:26:20;13.13;;;5.63;;
4839;SDS011;2434;48.486;7.964;2024-01-27T12:28:49;12.00;;;5.13;;
4839;SDS011;2434;48.486;7.964;2024-01-27T12:31:17;12.50;;;5.20;;
4839;SDS011;2434;48.486;7.964;2024-01-27T12:33:49;10.47;;;5.17;;
4839;SDS011;2434;48.486;7.964;2024-01-27T12:36:19;11.77;;;5.27;;
4839;SDS011;2434;48.486;7.964;2024-01-27T12:38:53;10.97;;;5.20;;
4839;SDS011;2434;48.486;7.964;2024-01-27T12:41:22;11.90;;;5.43;;
4839;SDS011;2434;48.486;7.964;2024-01-27T12:43:50;11.43;;;5.47;;
4839;SDS011;2434;48.486;7.964;2024-01-27T12:46:18;11.90;;;6.33;;
4839;SDS011;2434;48.486;7.964;2024-01-27T12:48:46;10.80;;;5.30;;
4839;SDS011;2434;48.486;7.964;2024-01-27T12:51:14;9.63;;;6.17;;
4839;SDS011;2434;48.486;7.964;2024-01-27T12:53:44;11.33;;;5.47;;
4839;SDS011;2434;48.486;7.964;2024-01-27T12:56:13;10.07;;;5.00;;
4839;SDS011;2434;48.486;7.964;2024-01-27T12:58:43;16.07;;;5.17;;
4839;SDS011;2434;48.486;7.964;2024-01-27T13:01:11;11.60;;;5.30;;
4839;SDS011;2434;48.486;7.964;2024-01-27T13:03:39;9.23;;;5.13;;
4839;SDS011;2434;48.486;7.964;2024-01-27T13:06:11;18.03;;;5.40;;
4839;SDS011;2434;48.486;7.964;2024-01-27T13:08:40;9.77;;;4.93;;
4839;SDS011;2434;48.486;7.964;2024-01-27T13:11:10;9.40;;;4.83;;
4839;SDS011;2434;48.486;7.964;2024-01-27T13:13:40;13.53;;;5.40;;
4839;SDS011;2434;48.486;7.964;2024-01-27T13:16:08;8.20;;;3.97;;
4839;SDS011;2434;48.486;7.964;2024-01-27T13:18:36;9.60;;;4.50;;
4839;SDS011;2434;48.486;7.964;2024-01-27T13:21:04;14.43;;;4.57;;
4839;SDS011;2434;48.486;7.964;2024-01-27T13:23:33;11.33;;;4.53;;
4839;SDS011;2434;48.486;7.964;2024-01-27T13:26:02;12.07;;;6.20;;
4839;SDS011;2434;48.486;7.964;2024-01-27T13:28:45;12.10;;;4.90;;
4839;SDS011;2434;48.486;7.964;2024-01-27T13:31:15;10.90;;;5.20;;
4839;SDS011;2434;48.486;7.964;2024-01-27T13:33:44;12.03;;;5.13;;
4839;SDS011;2434;48.486;7.964;2024-01-27T13:36:12;16.43;;;5.37;;
4839;SDS011;2434;48.486;7.964;2024-01-27T13:38:40;14.33;;;5.40;;
4839;SDS011;2434;48.486;7.964;2024-01-27T13:41:08;13.20;;;5.43;;
4839;SDS011;2434;48.486;7.964;2024-01-27T13:43:36;10.17;;;4.30;;
4839;SDS011;2434;48.486;7.964;2024-01-27T13:46:06;9.27;;;4.60;;
4839;SDS011;2434;48.486;7.964;2024-01-27T13:48:34;10.43;;;4.00;;
4839;SDS011;2434;48.486;7.964;2024-01-27T13:51:02;14.77;;;5.00;;
4839;SDS011;2434;48.486;7.964;2024-01-27T13:53:31;19.83;;;5.57;;
4839;SDS011;2434;48.486;7.964;2024-01-27T13:56:12;11.87;;;4.83;;
4839;SDS011;2434;48.486;7.964;2024-01-27T13:58:40;13.10;;;4.43;;
4839;SDS011;2434;48.486;7.964;2024-01-27T14:01:11;11.87;;;5.50;;
4839;SDS011;2434;48.486;7.964;2024-01-27T14:03:39;7.90;;;4.97;;
4839;SDS011;2434;48.486;7.964;2024-01-27T14:06:07;13.50;;;5.20;;
4839;SDS011;2434;48.486;7.964;2024-01-27T14:08:40;13.70;;;4.30;;
4839;SDS011;2434;48.486;7.964;2024-01-27T14:11:08;12.07;;;4.77;;
4839;SDS011;2434;48.486;7.964;2024-01-27T14:13:37;12.97;;;4.87;;
4839;SDS011;2434;48.486;7.964;2024-01-27T14:16:05;9.20;;;3.20;;
4839;SDS011;2434;48.486;7.964;2024-01-27T14:18:35;8.53;;;3.50;;
4839;SDS011;2434;48.486;7.964;2024-01-27T14:21:03;11.17;;;4.30;;
4839;SDS011;2434;48.486;7.964;2024-01-27T14:23:31;10.53;;;3.80;;
4839;SDS011;2434;48.486;7.964;2024-01-27T14:25:59;9.53;;;3.97;;
4839;SDS011;2434;48.486;7.964;2024-01-27T14:28:28;9.93;;;3.97;;
4839;SDS011;2434;48.486;7.964;2024-01-27T14:30:56;12.83;;;4.30;;
4839;SDS011;2434;48.486;7.964;2024-01-27T14:33:24;7.80;;;4.40;;
4839;SDS011;2434;48.486;7.964;2024-01-27T14:35:53;17.27;;;5.20;;
4839;SDS011;2434;48.486;7.964;2024-01-27T14:38:22;11.93;;;6.00;;
4839;SDS011;2434;48.486;7.964;2024-01-27T14:40:50;11.50;;;5.93;;
4839;SDS011;2434;48.486;7.964;2024-01-27T14:43:18;13.40;;;6.67;;
4839;SDS011;2434;48.486;7.964;2024-01-27T14:45:46;10.43;;;5.67;;
4839;SDS011;2434;48.486;7.964;2024-01-27T14:48:15;12.13;;;5.40;;
4839;SDS011;2434;48.486;7.964;2024-01-27T14:50:46;15.73;;;6.03;;
4839;SDS011;2434;48.486;7.964;2024-01-27T14:53:20;13.73;;;6.73;;
4839;SDS011;2434;48.486;7.964;2024-01-27T14:55:48;11.07;;;5.53;;
4839;SDS011;2434;48.486;7.964;2024-01-27T14:58:16;13.03;;;6.40;;
4839;SDS011;2434;48.486;7.964;2024-01-27T15:00:44;14.03;;;6.00;;
4839;SDS011;2434;48.486;7.964;2024-01-27T15:03:18;13.67;;;6.20;;
4839;SDS011;2434;48.486;7.964;2024-01-27T15:05:48;12.00;;;7.07;;
4839;SDS011;2434;48.486;7.964;2024-01-27T15:08:16;14.40;;;6.37;;
4839;SDS011;2434;48.486;7.964;2024-01-27T15:10:46;11.20;;;5.53;;
4839;SDS011;2434;48.486;7.964;2024-01-27T15:13:14;15.53;;;7.10;;
4839;SDS011;2434;48.486;7.964;2024-01-27T15:15:46;10.20;;;5.70;;
4839;SDS011;2434;48.486;7.964;2024-01-27T15:18:15;10.87;;;5.67;;